createdAt,value
2023-03-05T00:00:24.749Z,94915.27
2023-03-05T00:03:12.926Z,94915.24
2023-03-05T00:05:41.448Z,94916.65
2023-03-05T00:08:09.471Z,94916.30
2023-03-05T00:10:37.425Z,94918.61
2023-03-05T00:13:05.460Z,94919.09
2023-03-05T00:15:33.759Z,94919.02
2023-03-05T00:18:01.812Z,94915.90
2023-03-05T00:20:29.822Z,94916.52
2023-03-05T00:22:57.854Z,94916.43
2023-03-05T00:25:25.930Z,94913.39
2023-03-05T00:27:53.826Z,94916.27
2023-03-05T00:30:21.878Z,94910.48
2023-03-05T00:32:50.059Z,94908.66
2023-03-05T00:35:18.234Z,94915.30
2023-03-05T00:37:46.399Z,94912.83
2023-03-05T00:40:14.780Z,94916.97
2023-03-05T00:42:43.264Z,94914.42
2023-03-05T00:45:11.741Z,94910.86
2023-03-05T00:47:40.132Z,94905.69
2023-03-05T00:50:08.920Z,94904.92
2023-03-05T00:52:37.000Z,94904.35
2023-03-05T00:55:05.885Z,94907.42
2023-03-05T00:57:34.466Z,94902.35
2023-03-05T01:00:02.648Z,94903.42
2023-03-05T01:02:32.629Z,94904.55
2023-03-05T01:05:02.071Z,94902.77
2023-03-05T01:07:30.639Z,94899.73
2023-03-05T01:09:58.767Z,94899.41
2023-03-05T01:12:26.787Z,94901.52
2023-03-05T01:14:54.734Z,94895.92
2023-03-05T01:17:23.030Z,94899.34
2023-03-05T01:19:51.101Z,94901.73
2023-03-05T01:22:19.119Z,94900.76
2023-03-05T01:24:47.550Z,94899.85
2023-03-05T01:27:15.825Z,94895.77
2023-03-05T01:29:44.015Z,94896.04
2023-03-05T01:32:12.046Z,94892.04
2023-03-05T01:34:42.124Z,94896.50
2023-03-05T01:37:10.082Z,94894.92
2023-03-05T01:39:38.625Z,94897.29
2023-03-05T01:42:06.902Z,94893.05
2023-03-05T01:44:35.021Z,94895.62
2023-03-05T01:47:03.287Z,94893.82
2023-03-05T01:49:34.014Z,94896.27
2023-03-05T01:52:11.513Z,94894.94
2023-03-05T01:54:43.434Z,94901.29
2023-03-05T01:57:14.148Z,94896.32
2023-03-05T01:59:44.842Z,94899.64
2023-03-05T02:02:13.246Z,94900.06
2023-03-05T02:04:44.588Z,94906.89
2023-03-05T02:07:13.067Z,94910.21
2023-03-05T02:09:41.591Z,94910.34
2023-03-05T02:12:10.737Z,94907.98
2023-03-05T02:14:39.443Z,94909.55
2023-03-05T02:17:09.497Z,94910.69
2023-03-05T02:19:50.986Z,94910.66
2023-03-05T02:22:20.034Z,94907.42
2023-03-05T02:24:48.376Z,94907.67
2023-03-05T02:27:16.593Z,94911.18
2023-03-05T02:29:46.810Z,94917.13
2023-03-05T02:32:14.888Z,94916.27
2023-03-05T02:34:43.165Z,94918.86
2023-03-05T02:37:11.258Z,94921.44
2023-03-05T02:39:39.851Z,94922.52
2023-03-05T02:42:09.043Z,94922.67
2023-03-05T02:44:37.745Z,94919.42
2023-03-05T02:47:05.792Z,94918.54
2023-03-05T02:49:34.982Z,94919.54
2023-03-05T02:52:03.090Z,94916.84
2023-03-05T02:54:31.340Z,94910.41
2023-03-05T02:56:59.747Z,94917.15
2023-03-05T02:59:28.606Z,94916.30
2023-03-05T03:01:57.402Z,94918.59
2023-03-05T03:04:26.024Z,94920.10
2023-03-05T03:06:54.260Z,94923.58
2023-03-05T03:09:22.334Z,94928.13
2023-03-05T03:11:50.453Z,94926.84
2023-03-05T03:14:18.686Z,94927.58
2023-03-05T03:16:47.017Z,94926.85
2023-03-05T03:19:16.168Z,94925.81
2023-03-05T03:21:44.312Z,94924.90
2023-03-05T03:24:12.319Z,94917.19
2023-03-05T03:26:40.607Z,94916.48
2023-03-05T03:29:08.670Z,94916.10
2023-03-05T03:31:37.457Z,94916.77
2023-03-05T03:34:05.732Z,94921.83
2023-03-05T03:36:34.426Z,94922.42
2023-03-05T03:39:02.854Z,94925.08
2023-03-05T03:41:30.988Z,94924.59
2023-03-05T03:43:59.038Z,94924.72
2023-03-05T03:46:27.192Z,94923.33
2023-03-05T03:48:55.300Z,94919.81
2023-03-05T03:51:23.246Z,94917.02
2023-03-05T03:53:51.448Z,94916.27
2023-03-05T03:56:19.605Z,94920.55
2023-03-05T03:58:50.285Z,94923.95
2023-03-05T04:01:19.261Z,94927.69
2023-03-05T04:03:47.197Z,94926.23
2023-03-05T04:06:15.501Z,94929.48
2023-03-05T04:08:43.778Z,94928.83
2023-03-05T04:11:11.733Z,94932.15
2023-03-05T04:13:39.729Z,94930.20
2023-03-05T04:16:08.177Z,94926.84
2023-03-05T04:18:36.196Z,94926.36
2023-03-05T04:21:04.558Z,94928.50
2023-03-05T04:23:32.734Z,94927.41
2023-03-05T04:26:00.612Z,94924.58
2023-03-05T04:28:28.727Z,94922.77
2023-03-05T04:30:56.781Z,94924.23
2023-03-05T04:33:25.008Z,94921.17
2023-03-05T04:35:53.401Z,94922.40
2023-03-05T04:38:21.578Z,94922.14
2023-03-05T04:40:49.745Z,94920.56
2023-03-05T04:43:18.135Z,94925.61
2023-03-05T04:45:46.612Z,94925.48
2023-03-05T04:48:14.549Z,94928.17
2023-03-05T04:50:42.560Z,94924.77
2023-03-05T04:53:10.762Z,94925.06
2023-03-05T04:55:39.007Z,94928.04
2023-03-05T04:58:07.388Z,94929.14
2023-03-05T05:00:35.467Z,94930.86
2023-03-05T05:03:03.838Z,94931.88
2023-03-05T05:05:31.939Z,94935.32
2023-03-05T05:08:00.297Z,94937.64
2023-03-05T05:10:28.400Z,94943.55
2023-03-05T05:12:58.600Z,94949.61
2023-03-05T05:15:26.767Z,94951.44
2023-03-05T05:17:55.073Z,94955.71
2023-03-05T05:20:23.328Z,94961.87
2023-03-05T05:22:51.600Z,94964.63
2023-03-05T05:25:19.585Z,94963.98
2023-03-05T05:27:47.644Z,94960.98
2023-03-05T05:30:16.149Z,94963.16
2023-03-05T05:32:44.038Z,94964.08
2023-03-05T05:35:12.177Z,94966.95
2023-03-05T05:37:40.269Z,94965.02
2023-03-05T05:40:09.719Z,94969.61
2023-03-05T05:42:37.858Z,94967.61
2023-03-05T05:45:06.582Z,94974.77
2023-03-05T05:47:34.632Z,94977.09
2023-03-05T05:50:03.594Z,94978.92
2023-03-05T05:52:31.974Z,94981.89
2023-03-05T05:55:00.079Z,94980.48
2023-03-05T05:57:28.221Z,94977.13
2023-03-05T05:59:56.328Z,94976.42
2023-03-05T06:02:24.677Z,94979.36
2023-03-05T06:04:52.623Z,94975.74
2023-03-05T06:07:20.542Z,94976.15
2023-03-05T06:09:49.097Z,94975.96
2023-03-05T06:12:17.147Z,94978.52
2023-03-05T06:14:45.048Z,94977.25
2023-03-05T06:17:21.832Z,94977.77
2023-03-05T06:19:54.751Z,94982.63
2023-03-05T06:22:22.704Z,94989.38
2023-03-05T06:24:50.746Z,94985.98
2023-03-05T06:27:18.873Z,94991.56
2023-03-05T06:29:47.005Z,94990.70
2023-03-05T06:32:15.042Z,94992.95
2023-03-05T06:34:42.977Z,94995.59
2023-03-05T06:37:10.890Z,94997.02
2023-03-05T06:39:38.894Z,95000.02
2023-03-05T06:42:07.366Z,94996.45
2023-03-05T06:44:35.288Z,94992.77
2023-03-05T06:47:04.839Z,94994.05
2023-03-05T06:49:33.426Z,94997.48
2023-03-05T06:52:02.027Z,94998.67
2023-03-05T06:54:30.599Z,94995.77
2023-03-05T06:56:58.979Z,94997.98
2023-03-05T06:59:27.053Z,94993.61
2023-03-05T07:01:54.920Z,94997.78
2023-03-05T07:04:24.537Z,94997.83
2023-03-05T07:06:52.701Z,94999.52
2023-03-05T07:09:20.981Z,94998.77
2023-03-05T07:11:49.171Z,94999.85
2023-03-05T07:14:17.113Z,95001.20
2023-03-05T07:16:45.213Z,95000.13
2023-03-05T07:19:13.250Z,95000.98
2023-03-05T07:21:41.429Z,95002.59
2023-03-05T07:24:09.523Z,95000.34
2023-03-05T07:26:38.120Z,95002.02
2023-03-05T07:29:06.294Z,95001.48
2023-03-05T07:31:34.364Z,95001.70
2023-03-05T07:34:03.192Z,95003.30
2023-03-05T07:36:31.853Z,95005.38
2023-03-05T07:39:00.011Z,95002.11
2023-03-05T07:41:28.319Z,95008.27
2023-03-05T07:43:56.468Z,95007.14
2023-03-05T07:46:26.594Z,95006.61
2023-03-05T07:48:55.379Z,95006.30
2023-03-05T07:51:24.756Z,95001.70
2023-03-05T07:53:53.821Z,95001.27
2023-03-05T07:56:24.106Z,95001.90
2023-03-05T07:58:52.834Z,94999.80
2023-03-05T08:01:21.081Z,94997.40
2023-03-05T08:03:49.050Z,95002.00
2023-03-05T08:06:17.545Z,94999.20
2023-03-05T08:08:45.499Z,95001.27
2023-03-05T08:11:14.873Z,95002.44
2023-03-05T08:13:44.202Z,94995.16
2023-03-05T08:16:14.286Z,94997.64
2023-03-05T08:18:43.244Z,94994.44
2023-03-05T08:21:18.773Z,94990.75
2023-03-05T08:23:46.837Z,94986.92
2023-03-05T08:26:16.063Z,94983.30
2023-03-05T08:28:44.328Z,94980.16
2023-03-05T08:31:13.496Z,94976.27
2023-03-05T08:33:42.232Z,94976.61
2023-03-05T08:36:10.684Z,94975.17
2023-03-05T08:38:38.919Z,94974.29
2023-03-05T08:41:06.880Z,94974.39
2023-03-05T08:43:34.804Z,94976.85
2023-03-05T08:46:03.589Z,94971.44
2023-03-05T08:48:31.981Z,94975.33
2023-03-05T08:51:06.782Z,94973.16
2023-03-05T08:53:34.802Z,94970.71
2023-03-05T08:56:02.773Z,94967.42
2023-03-05T08:58:30.862Z,94972.20
2023-03-05T09:00:58.897Z,94967.49
2023-03-05T09:03:27.415Z,94968.70
2023-03-05T09:05:59.149Z,94968.16
2023-03-05T09:08:27.522Z,94969.52
2023-03-05T09:10:55.928Z,94966.79
2023-03-05T09:13:24.071Z,94964.29
2023-03-05T09:15:59.440Z,94960.94
2023-03-05T09:18:28.000Z,94956.34
2023-03-05T09:20:56.701Z,94957.05
2023-03-05T09:23:24.860Z,94955.05
2023-03-05T09:25:52.946Z,94957.50
2023-03-05T09:28:21.110Z,94956.61
2023-03-05T09:30:49.108Z,94956.67
2023-03-05T09:33:17.373Z,94952.42
2023-03-05T09:35:45.677Z,94955.04
2023-03-05T09:38:13.719Z,94954.44
2023-03-05T09:40:47.618Z,94946.37
2023-03-05T09:43:36.075Z,94944.61
2023-03-05T09:46:04.392Z,94938.45
2023-03-05T09:48:44.621Z,94936.66
2023-03-05T09:51:17.023Z,94937.46
2023-03-05T09:53:48.733Z,94936.23
2023-03-05T09:56:19.584Z,94936.31
2023-03-05T09:58:55.220Z,94933.86
2023-03-05T10:01:29.831Z,94935.19
2023-03-05T10:03:57.866Z,94936.44
2023-03-05T10:06:31.128Z,94933.34
2023-03-05T10:09:11.798Z,94933.02
2023-03-05T10:11:39.923Z,94928.71
2023-03-05T10:14:13.968Z,94925.41
2023-03-05T10:17:01.019Z,94921.44
2023-03-05T10:19:32.374Z,94919.70
2023-03-05T10:22:19.489Z,94913.48
2023-03-05T10:25:06.611Z,94915.51
2023-03-05T10:27:35.030Z,94914.55
2023-03-05T10:30:22.107Z,94914.65
2023-03-05T10:32:50.021Z,94911.69
2023-03-05T10:35:23.554Z,94910.63
2023-03-05T10:37:51.650Z,94905.21
2023-03-05T10:40:28.008Z,94900.81
2023-03-05T10:42:56.591Z,94896.58
2023-03-05T10:45:27.222Z,94892.73
2023-03-05T10:48:13.868Z,94894.52
2023-03-05T10:50:48.233Z,94893.13
2023-03-05T10:53:32.541Z,94886.07
2023-03-05T10:56:04.671Z,94883.60
2023-03-05T10:58:32.990Z,94883.76
2023-03-05T11:01:22.850Z,94878.86
2023-03-05T11:03:55.449Z,94870.50
2023-03-05T11:06:31.287Z,94871.92
2023-03-05T11:09:16.444Z,94864.98
2023-03-05T11:11:45.559Z,94862.66
2023-03-05T11:14:31.452Z,94861.03
2023-03-05T11:17:00.940Z,94857.06
2023-03-05T11:19:33.172Z,94854.27
2023-03-05T11:22:11.140Z,94854.09
2023-03-05T11:24:41.352Z,94853.17
2023-03-05T11:27:29.797Z,94846.58
2023-03-05T11:29:58.784Z,94847.85
2023-03-05T11:32:28.034Z,94842.88
2023-03-05T11:34:57.009Z,94842.64
2023-03-05T11:37:29.756Z,94845.14
2023-03-05T11:40:19.783Z,94841.85
2023-03-05T11:42:51.201Z,94840.90
2023-03-05T11:45:19.710Z,94842.28
2023-03-05T11:47:52.413Z,94843.56
2023-03-05T11:50:31.239Z,94842.39
2023-03-05T11:53:03.985Z,94839.65
2023-03-05T11:55:34.688Z,94839.44
2023-03-05T11:58:21.204Z,94839.77
2023-03-05T12:00:49.449Z,94839.81
2023-03-05T12:03:21.263Z,94835.95
2023-03-05T12:05:51.754Z,94835.23
2023-03-05T12:08:25.641Z,94836.78
2023-03-05T12:10:53.872Z,94834.81
2023-03-05T12:13:29.227Z,94835.05
2023-03-05T12:15:57.236Z,94829.98
2023-03-05T12:18:44.109Z,94823.44
2023-03-05T12:21:26.244Z,94821.36
2023-03-05T12:23:59.210Z,94820.57
2023-03-05T12:26:46.244Z,94816.94
2023-03-05T12:29:27.458Z,94814.58
2023-03-05T12:31:55.794Z,94811.23
2023-03-05T12:34:42.930Z,94811.87
2023-03-05T12:37:12.823Z,94813.37
2023-03-05T12:39:42.788Z,94807.20
2023-03-05T12:42:29.216Z,94806.45
2023-03-05T12:45:09.910Z,94805.84
2023-03-05T12:47:48.119Z,94802.37
2023-03-05T12:50:28.583Z,94801.16
2023-03-05T12:52:58.212Z,94797.77
2023-03-05T12:55:33.711Z,94797.90
2023-03-05T12:58:10.397Z,94795.55
2023-03-05T13:00:38.451Z,94795.83
2023-03-05T13:03:09.842Z,94791.16
2023-03-05T13:05:39.551Z,94786.89
2023-03-05T13:08:10.921Z,94784.48
2023-03-05T13:10:40.032Z,94781.75
2023-03-05T13:13:13.478Z,94780.05
2023-03-05T13:15:45.280Z,94776.45
2023-03-05T13:18:18.984Z,94773.14
2023-03-05T13:20:50.926Z,94772.80
2023-03-05T13:23:26.806Z,94774.09
2023-03-05T13:26:04.222Z,94775.19
2023-03-05T13:28:33.097Z,94779.23
2023-03-05T13:31:03.092Z,94784.67
2023-03-05T13:33:35.906Z,94786.98
2023-03-05T13:36:05.138Z,94788.14
2023-03-05T13:38:40.620Z,94785.91
2023-03-05T13:41:11.433Z,94788.11
2023-03-05T13:43:43.336Z,94787.05
2023-03-05T13:46:11.851Z,94784.97
2023-03-05T13:48:40.076Z,94791.73
2023-03-05T13:51:09.810Z,94796.54
2023-03-05T13:53:38.182Z,94795.23
2023-03-05T13:56:07.624Z,94789.25
2023-03-05T13:58:55.478Z,94790.30
2023-03-05T14:01:26.854Z,94779.41
2023-03-05T14:03:57.503Z,94775.23
2023-03-05T14:06:28.426Z,94771.34
2023-03-05T14:09:18.762Z,94771.34
2023-03-05T14:12:05.075Z,94770.08
2023-03-05T14:14:36.699Z,94770.52
2023-03-05T14:17:23.820Z,94770.40
2023-03-05T14:19:52.596Z,94767.77
2023-03-05T14:22:33.124Z,94767.14
2023-03-05T14:25:01.714Z,94767.52
2023-03-05T14:27:35.247Z,94773.59
2023-03-05T14:30:04.816Z,94771.21
2023-03-05T14:32:37.264Z,94766.05
2023-03-05T14:35:06.215Z,94768.17
2023-03-05T14:37:36.003Z,94766.84
2023-03-05T14:40:16.860Z,94762.71
2023-03-05T14:42:52.552Z,94759.46
2023-03-05T14:45:21.783Z,94757.73
2023-03-05T14:47:50.670Z,94759.77
2023-03-05T14:50:20.415Z,94758.96
2023-03-05T14:52:49.778Z,94757.30
2023-03-05T14:55:19.242Z,94761.81
2023-03-05T14:57:48.101Z,94762.02
2023-03-05T15:00:19.946Z,94768.58
2023-03-05T15:02:48.595Z,94759.64
2023-03-05T15:05:17.428Z,94766.14
2023-03-05T15:07:46.059Z,94766.41
2023-03-05T15:10:15.815Z,94766.27
2023-03-05T15:12:44.497Z,94763.71
2023-03-05T15:15:16.008Z,94762.83
2023-03-05T15:17:47.550Z,94764.41
2023-03-05T15:20:18.135Z,94765.14
2023-03-05T15:22:46.402Z,94766.82
2023-03-05T15:25:14.925Z,94770.90
2023-03-05T15:27:43.299Z,94772.77
2023-03-05T15:30:23.648Z,94774.86
2023-03-05T15:32:52.865Z,94777.34
2023-03-05T15:35:21.850Z,94778.38
2023-03-05T15:37:50.113Z,94780.52
2023-03-05T15:40:19.230Z,94785.33
2023-03-05T15:42:47.668Z,94786.91
2023-03-05T15:45:16.319Z,94788.48
2023-03-05T15:47:44.661Z,94788.89
2023-03-05T15:50:12.743Z,94790.77
2023-03-05T15:52:40.711Z,94787.90
2023-03-05T15:55:09.159Z,94793.04
2023-03-05T15:57:38.210Z,94791.58
2023-03-05T16:00:06.763Z,94793.59
2023-03-05T16:02:38.061Z,94794.67
2023-03-05T16:05:07.313Z,94795.36
2023-03-05T16:07:37.029Z,94795.77
2023-03-05T16:10:06.072Z,94795.04
2023-03-05T16:12:40.902Z,94793.83
2023-03-05T16:15:13.846Z,94797.41
2023-03-05T16:17:44.084Z,94797.41
2023-03-05T16:20:13.718Z,94799.16
2023-03-05T16:22:41.761Z,94802.11
2023-03-05T16:25:10.064Z,94800.05
2023-03-05T16:27:38.019Z,94800.41
2023-03-05T16:30:06.265Z,94802.51
2023-03-05T16:32:34.323Z,94808.53
2023-03-05T16:35:02.529Z,94805.94
2023-03-05T16:37:30.548Z,94801.27
2023-03-05T16:39:59.502Z,94802.35
2023-03-05T16:42:27.572Z,94801.30
2023-03-05T16:44:56.898Z,94802.27
2023-03-05T16:47:24.952Z,94803.75
2023-03-05T16:49:52.855Z,94810.16
2023-03-05T16:52:21.124Z,94811.45
2023-03-05T16:54:49.689Z,94815.33
2023-03-05T16:57:18.268Z,94818.84
2023-03-05T16:59:46.214Z,94818.65
2023-03-05T17:02:15.563Z,94824.27
2023-03-05T17:04:43.709Z,94823.54
2023-03-05T17:07:11.876Z,94823.41
2023-03-05T17:09:39.961Z,94820.17
2023-03-05T17:12:08.677Z,94820.45
2023-03-05T17:14:36.664Z,94819.61
2023-03-05T17:17:04.688Z,94820.81
2023-03-05T17:19:32.647Z,94821.91
2023-03-05T17:22:00.761Z,94820.79
2023-03-05T17:24:30.361Z,94820.86
2023-03-05T17:26:58.846Z,94821.59
2023-03-05T17:29:27.003Z,94822.09
2023-03-05T17:31:55.094Z,94826.38
2023-03-05T17:34:35.492Z,94826.23
2023-03-05T17:37:05.457Z,94822.84
2023-03-05T17:39:33.648Z,94826.59
2023-03-05T17:42:01.807Z,94833.30
2023-03-05T17:44:29.994Z,94830.02
2023-03-05T17:46:58.052Z,94828.65
2023-03-05T17:49:26.441Z,94827.60
2023-03-05T17:51:54.484Z,94829.70
2023-03-05T17:54:22.799Z,94831.00
2023-03-05T17:56:54.445Z,94832.02
2023-03-05T17:59:23.146Z,94830.35
2023-03-05T18:01:51.409Z,94831.16
2023-03-05T18:04:19.650Z,94826.89
2023-03-05T18:06:47.604Z,94828.09
2023-03-05T18:09:15.735Z,94832.05
2023-03-05T18:11:43.806Z,94829.67
2023-03-05T18:14:12.022Z,94831.89
2023-03-05T18:16:40.164Z,94835.16
2023-03-05T18:19:10.013Z,94836.73
2023-03-05T18:21:39.888Z,94833.27
2023-03-05T18:24:08.883Z,94837.47
2023-03-05T18:26:37.158Z,94838.52
2023-03-05T18:29:05.233Z,94836.90
2023-03-05T18:31:33.330Z,94834.56
2023-03-05T18:34:01.598Z,94833.75
2023-03-05T18:36:29.621Z,94833.79
2023-03-05T18:38:57.626Z,94836.86
2023-03-05T18:41:27.966Z,94833.54
2023-03-05T18:43:56.872Z,94837.21
2023-03-05T18:46:24.994Z,94839.85
2023-03-05T18:48:53.091Z,94837.06
2023-03-05T18:51:22.028Z,94832.90
2023-03-05T18:53:52.518Z,94831.64
2023-03-05T18:56:21.797Z,94827.17
2023-03-05T18:58:50.401Z,94831.45
2023-03-05T19:01:19.104Z,94833.58
2023-03-05T19:03:47.632Z,94832.46
2023-03-05T19:06:18.514Z,94832.45
2023-03-05T19:08:47.405Z,94831.49
2023-03-05T19:11:32.581Z,94832.86
2023-03-05T19:14:00.670Z,94833.23
2023-03-05T19:16:33.953Z,94835.16
2023-03-05T19:19:25.576Z,94834.93
2023-03-05T19:21:59.850Z,94835.77
2023-03-05T19:24:28.997Z,94831.57
2023-03-05T19:27:00.480Z,94831.17
2023-03-05T19:29:33.250Z,94834.56
2023-03-05T19:32:01.572Z,94836.64
2023-03-05T19:34:29.656Z,94834.80
2023-03-05T19:36:57.762Z,94833.23
2023-03-05T19:39:25.829Z,94834.85
2023-03-05T19:41:54.013Z,94834.44
2023-03-05T19:44:22.282Z,94837.80
2023-03-05T19:46:50.293Z,94842.64
2023-03-05T19:49:18.560Z,94839.33
2023-03-05T19:51:47.016Z,94843.77
2023-03-05T19:54:16.350Z,94839.41
2023-03-05T19:56:45.619Z,94841.95
2023-03-05T19:59:16.484Z,94841.95
2023-03-05T20:01:45.946Z,94843.08
2023-03-05T20:04:15.485Z,94839.77
2023-03-05T20:06:43.478Z,94836.85
2023-03-05T20:09:11.617Z,94836.25
2023-03-05T20:11:40.441Z,94841.33
2023-03-05T20:14:08.579Z,94836.36
2023-03-05T20:16:38.038Z,94830.63
2023-03-05T20:19:07.595Z,94832.57
2023-03-05T20:21:41.445Z,94831.65
2023-03-05T20:24:12.148Z,94827.29
2023-03-05T20:26:41.162Z,94826.30
2023-03-05T20:29:09.824Z,94829.25
2023-03-05T20:31:38.226Z,94829.21
2023-03-05T20:34:11.314Z,94830.23
2023-03-05T20:36:40.289Z,94827.84
2023-03-05T20:39:08.529Z,94827.16
2023-03-05T20:41:37.984Z,94823.67
2023-03-05T20:44:07.377Z,94818.23
2023-03-05T20:46:39.618Z,94819.08
2023-03-05T20:49:09.898Z,94813.58
2023-03-05T20:51:38.461Z,94815.40
2023-03-05T20:54:09.044Z,94811.77
2023-03-05T20:56:37.680Z,94808.30
2023-03-05T20:59:08.805Z,94802.45
2023-03-05T21:01:38.208Z,94798.48
2023-03-05T21:04:06.846Z,94792.20
2023-03-05T21:06:35.832Z,94793.48
2023-03-05T21:09:04.200Z,94790.83
2023-03-05T21:11:32.475Z,94785.81
2023-03-05T21:14:00.747Z,94783.59
2023-03-05T21:16:28.639Z,94787.06
2023-03-05T21:18:57.500Z,94785.66
2023-03-05T21:21:25.783Z,94780.77
2023-03-05T21:23:54.062Z,94772.65
2023-03-05T21:26:22.361Z,94767.20
2023-03-05T21:28:50.412Z,94760.05
2023-03-05T21:31:20.498Z,94766.52
2023-03-05T21:33:49.336Z,94752.95
2023-03-05T21:36:20.340Z,94753.59
2023-03-05T21:38:49.196Z,94753.04
2023-03-05T21:41:18.413Z,94752.31
2023-03-05T21:43:47.248Z,94752.71
2023-03-05T21:46:15.220Z,94751.14
2023-03-05T21:48:43.501Z,94750.29
2023-03-05T21:51:38.832Z,94749.92
2023-03-05T21:54:17.451Z,94751.26
2023-03-05T21:56:46.013Z,94754.40
2023-03-05T21:59:13.927Z,94754.84
2023-03-05T22:01:41.864Z,94757.59
2023-03-05T22:04:09.838Z,94760.48
2023-03-05T22:06:37.997Z,94763.15
2023-03-05T22:09:06.072Z,94761.90
2023-03-05T22:11:34.349Z,94754.31
2023-03-05T22:14:02.423Z,94755.97
2023-03-05T22:16:30.748Z,94757.49
2023-03-05T22:18:59.688Z,94757.34
2023-03-05T22:21:28.788Z,94757.65
2023-03-05T22:23:57.487Z,94753.77
2023-03-05T22:26:27.089Z,94754.17
2023-03-05T22:28:55.258Z,94749.42
2023-03-05T22:31:24.667Z,94746.56
2023-03-05T22:33:52.964Z,94748.66
2023-03-05T22:36:21.324Z,94744.17
2023-03-05T22:38:49.702Z,94745.79
2023-03-05T22:41:21.870Z,94748.89
2023-03-05T22:43:50.475Z,94744.04
2023-03-05T22:46:20.845Z,94744.15
2023-03-05T22:48:49.059Z,94733.58
2023-03-05T22:51:17.446Z,94729.70
2023-03-05T22:53:46.237Z,94732.52
2023-03-05T22:56:15.888Z,94730.89
2023-03-05T22:58:44.320Z,94731.93
2023-03-05T23:01:16.368Z,94732.61
2023-03-05T23:04:22.521Z,94732.05
2023-03-05T23:07:11.013Z,94732.86
2023-03-05T23:09:39.212Z,94732.92
2023-03-05T23:12:07.675Z,94728.56
2023-03-05T23:14:35.699Z,94731.61
2023-03-05T23:17:04.145Z,94733.34
2023-03-05T23:19:39.498Z,94728.05
2023-03-05T23:22:09.084Z,94733.12
2023-03-05T23:24:37.261Z,94725.20
2023-03-05T23:27:05.842Z,94725.29
2023-03-05T23:30:06.089Z,94721.41
2023-03-05T23:32:36.447Z,94723.13
2023-03-05T23:35:05.053Z,94727.36
2023-03-05T23:37:33.059Z,94724.61
2023-03-05T23:40:02.344Z,94730.36
2023-03-05T23:42:30.680Z,94729.11
2023-03-05T23:44:59.217Z,94734.77
2023-03-05T23:47:27.253Z,94732.20
2023-03-05T23:49:55.200Z,94733.80
2023-03-05T23:52:23.224Z,94732.98
2023-03-05T23:54:51.305Z,94736.34
2023-03-05T23:57:19.277Z,94739.19
2023-03-05T23:59:47.312Z,94736.56
